sensor_id;sensor_type;location;lat;lon;timestamp;P1;durP1;ratioP1;P2;durP2;ratioP2
36377;SDS011;22402;42.746;23.606;2022-07-23T00:01:54;9.93;;;5.13;;
36377;SDS011;22402;42.746;23.606;2022-07-23T00:04:19;11.90;;;5.03;;
36377;SDS011;22402;42.746;23.606;2022-07-23T00:06:44;9.67;;;4.60;;
36377;SDS011;22402;42.746;23.606;2022-07-23T00:09:10;11.60;;;4.67;;
36377;SDS011;22402;42.746;23.606;2022-07-23T00:11:35;10.00;;;5.00;;
36377;SDS011;22402;42.746;23.606;2022-07-23T00:14:00;8.00;;;5.47;;
36377;SDS011;22402;42.746;23.606;2022-07-23T00:16:26;17.37;;;4.63;;
36377;SDS011;22402;42.746;23.606;2022-07-23T00:18:51;12.17;;;5.57;;
36377;SDS011;22402;42.746;23.606;2022-07-23T00:21:17;6.40;;;4.33;;
36377;SDS011;22402;42.746;23.606;2022-07-23T00:23:42;9.00;;;5.53;;
36377;SDS011;22402;42.746;23.606;2022-07-23T00:26:08;18.00;;;4.90;;
36377;SDS011;22402;42.746;23.606;2022-07-23T00:28:33;21.20;;;5.50;;
36377;SDS011;22402;42.746;23.606;2022-07-23T00:30:59;8.20;;;5.50;;
36377;SDS011;22402;42.746;23.606;2022-07-23T00:33:24;9.27;;;5.13;;
36377;SDS011;22402;42.746;23.606;2022-07-23T00:35:49;7.93;;;4.53;;
36377;SDS011;22402;42.746;23.606;2022-07-23T00:38:15;20.83;;;5.40;;
36377;SDS011;22402;42.746;23.606;2022-07-23T00:40:40;7.60;;;4.80;;
36377;SDS011;22402;42.746;23.606;2022-07-23T00:43:06;5.83;;;4.40;;
36377;SDS011;22402;42.746;23.606;2022-07-23T00:45:32;18.90;;;6.13;;
36377;SDS011;22402;42.746;23.606;2022-07-23T00:47:58;6.73;;;4.90;;
36377;SDS011;22402;42.746;23.606;2022-07-23T00:50:24;11.90;;;5.50;;
36377;SDS011;22402;42.746;23.606;2022-07-23T00:52:50;10.10;;;5.23;;
36377;SDS011;22402;42.746;23.606;2022-07-23T00:55:16;14.53;;;5.40;;
36377;SDS011;22402;42.746;23.606;2022-07-23T00:57:42;7.10;;;5.17;;
36377;SDS011;22402;42.746;23.606;2022-07-23T01:00:09;14.27;;;4.40;;
36377;SDS011;22402;42.746;23.606;2022-07-23T01:02:36;4.90;;;4.27;;
36377;SDS011;22402;42.746;23.606;2022-07-23T01:05:02;9.60;;;4.40;;
36377;SDS011;22402;42.746;23.606;2022-07-23T01:07:31;9.20;;;5.03;;
36377;SDS011;22402;42.746;23.606;2022-07-23T01:09:57;13.43;;;4.20;;
36377;SDS011;22402;42.746;23.606;2022-07-23T01:12:23;7.63;;;5.43;;
36377;SDS011;22402;42.746;23.606;2022-07-23T01:14:58;10.93;;;5.33;;
36377;SDS011;22402;42.746;23.606;2022-07-23T01:17:25;15.37;;;5.30;;
36377;SDS011;22402;42.746;23.606;2022-07-23T01:19:50;5.63;;;4.47;;
36377;SDS011;22402;42.746;23.606;2022-07-23T01:22:17;7.30;;;4.80;;
36377;SDS011;22402;42.746;23.606;2022-07-23T01:24:43;9.77;;;4.77;;
36377;SDS011;22402;42.746;23.606;2022-07-23T01:27:09;7.57;;;5.30;;
36377;SDS011;22402;42.746;23.606;2022-07-23T01:29:34;10.33;;;5.67;;
36377;SDS011;22402;42.746;23.606;2022-07-23T01:32:00;21.47;;;5.60;;
36377;SDS011;22402;42.746;23.606;2022-07-23T01:34:25;9.77;;;4.93;;
36377;SDS011;22402;42.746;23.606;2022-07-23T01:36:52;14.60;;;5.63;;
36377;SDS011;22402;42.746;23.606;2022-07-23T01:39:17;10.80;;;6.53;;
36377;SDS011;22402;42.746;23.606;2022-07-23T01:41:43;14.13;;;5.47;;
36377;SDS011;22402;42.746;23.606;2022-07-23T01:44:08;14.07;;;5.57;;
36377;SDS011;22402;42.746;23.606;2022-07-23T01:46:33;10.13;;;4.50;;
36377;SDS011;22402;42.746;23.606;2022-07-23T01:48:59;16.77;;;5.77;;
36377;SDS011;22402;42.746;23.606;2022-07-23T01:51:24;12.50;;;5.03;;
36377;SDS011;22402;42.746;23.606;2022-07-23T01:53:50;9.17;;;4.50;;
36377;SDS011;22402;42.746;23.606;2022-07-23T01:56:15;12.20;;;4.83;;
36377;SDS011;22402;42.746;23.606;2022-07-23T01:58:40;8.13;;;4.27;;
36377;SDS011;22402;42.746;23.606;2022-07-23T02:01:06;17.10;;;5.53;;
36377;SDS011;22402;42.746;23.606;2022-07-23T02:03:31;12.63;;;5.03;;
36377;SDS011;22402;42.746;23.606;2022-07-23T02:05:57;6.43;;;4.53;;
36377;SDS011;22402;42.746;23.606;2022-07-23T02:08:25;6.50;;;4.83;;
36377;SDS011;22402;42.746;23.606;2022-07-23T02:10:50;7.80;;;5.80;;
36377;SDS011;22402;42.746;23.606;2022-07-23T02:13:16;8.13;;;4.90;;
36377;SDS011;22402;42.746;23.606;2022-07-23T02:15:41;9.33;;;5.67;;
36377;SDS011;22402;42.746;23.606;2022-07-23T02:18:06;10.67;;;5.30;;
36377;SDS011;22402;42.746;23.606;2022-07-23T02:20:32;8.67;;;5.67;;
36377;SDS011;22402;42.746;23.606;2022-07-23T02:22:57;7.90;;;5.20;;
36377;SDS011;22402;42.746;23.606;2022-07-23T02:25:22;11.47;;;5.27;;
36377;SDS011;22402;42.746;23.606;2022-07-23T02:27:48;9.80;;;4.57;;
36377;SDS011;22402;42.746;23.606;2022-07-23T02:30:13;17.30;;;5.83;;
36377;SDS011;22402;42.746;23.606;2022-07-23T02:32:38;12.13;;;5.53;;
36377;SDS011;22402;42.746;23.606;2022-07-23T02:35:04;9.93;;;4.60;;
36377;SDS011;22402;42.746;23.606;2022-07-23T02:37:30;11.53;;;4.83;;
36377;SDS011;22402;42.746;23.606;2022-07-23T02:39:56;12.03;;;5.80;;
36377;SDS011;22402;42.746;23.606;2022-07-23T02:42:22;6.73;;;4.60;;
36377;SDS011;22402;42.746;23.606;2022-07-23T02:44:47;10.53;;;4.87;;
36377;SDS011;22402;42.746;23.606;2022-07-23T02:47:12;16.33;;;6.00;;
36377;SDS011;22402;42.746;23.606;2022-07-23T02:49:38;10.40;;;5.00;;
36377;SDS011;22402;42.746;23.606;2022-07-23T02:52:03;8.87;;;4.60;;
36377;SDS011;22402;42.746;23.606;2022-07-23T02:54:29;8.23;;;5.40;;
36377;SDS011;22402;42.746;23.606;2022-07-23T02:56:54;7.00;;;5.20;;
36377;SDS011;22402;42.746;23.606;2022-07-23T02:59:20;9.90;;;5.37;;
36377;SDS011;22402;42.746;23.606;2022-07-23T03:01:45;10.67;;;5.70;;
36377;SDS011;22402;42.746;23.606;2022-07-23T03:04:11;10.47;;;5.50;;
36377;SDS011;22402;42.746;23.606;2022-07-23T03:06:37;15.33;;;4.93;;
36377;SDS011;22402;42.746;23.606;2022-07-23T03:09:03;12.43;;;5.40;;
36377;SDS011;22402;42.746;23.606;2022-07-23T03:11:29;14.53;;;5.50;;
36377;SDS011;22402;42.746;23.606;2022-07-23T03:13:55;11.23;;;5.33;;
36377;SDS011;22402;42.746;23.606;2022-07-23T03:16:20;15.23;;;5.17;;
36377;SDS011;22402;42.746;23.606;2022-07-23T03:18:46;10.80;;;5.90;;
36377;SDS011;22402;42.746;23.606;2022-07-23T03:21:11;12.03;;;5.83;;
36377;SDS011;22402;42.746;23.606;2022-07-23T03:23:37;12.80;;;5.17;;
36377;SDS011;22402;42.746;23.606;2022-07-23T03:26:02;8.93;;;5.43;;
36377;SDS011;22402;42.746;23.606;2022-07-23T03:28:27;18.47;;;4.77;;
36377;SDS011;22402;42.746;23.606;2022-07-23T03:30:53;10.27;;;5.60;;
36377;SDS011;22402;42.746;23.606;2022-07-23T03:33:18;13.23;;;5.70;;
36377;SDS011;22402;42.746;23.606;2022-07-23T03:35:45;8.67;;;5.23;;
36377;SDS011;22402;42.746;23.606;2022-07-23T03:38:12;7.23;;;5.20;;
36377;SDS011;22402;42.746;23.606;2022-07-23T03:40:38;15.43;;;5.93;;
36377;SDS011;22402;42.746;23.606;2022-07-23T03:43:03;11.93;;;5.07;;
36377;SDS011;22402;42.746;23.606;2022-07-23T03:45:28;10.37;;;5.53;;
36377;SDS011;22402;42.746;23.606;2022-07-23T03:47:54;11.83;;;5.77;;
36377;SDS011;22402;42.746;23.606;2022-07-23T03:50:20;9.00;;;5.00;;
36377;SDS011;22402;42.746;23.606;2022-07-23T03:52:45;14.47;;;5.57;;
36377;SDS011;22402;42.746;23.606;2022-07-23T03:55:11;8.03;;;4.83;;
36377;SDS011;22402;42.746;23.606;2022-07-23T03:57:37;10.37;;;4.93;;
36377;SDS011;22402;42.746;23.606;2022-07-23T04:00:03;8.27;;;5.30;;
36377;SDS011;22402;42.746;23.606;2022-07-23T04:02:30;6.10;;;4.67;;
36377;SDS011;22402;42.746;23.606;2022-07-23T04:04:55;8.00;;;5.70;;
36377;SDS011;22402;42.746;23.606;2022-07-23T04:07:20;8.13;;;5.27;;
36377;SDS011;22402;42.746;23.606;2022-07-23T04:09:46;16.87;;;5.90;;
36377;SDS011;22402;42.746;23.606;2022-07-23T04:12:11;10.50;;;6.43;;
36377;SDS011;22402;42.746;23.606;2022-07-23T04:14:37;10.03;;;5.83;;
36377;SDS011;22402;42.746;23.606;2022-07-23T04:17:02;9.80;;;5.97;;
36377;SDS011;22402;42.746;23.606;2022-07-23T04:19:28;11.67;;;6.70;;
36377;SDS011;22402;42.746;23.606;2022-07-23T04:21:53;8.67;;;6.67;;
36377;SDS011;22402;42.746;23.606;2022-07-23T04:24:19;14.80;;;6.83;;
36377;SDS011;22402;42.746;23.606;2022-07-23T04:26:45;13.93;;;5.93;;
36377;SDS011;22402;42.746;23.606;2022-07-23T04:29:10;9.07;;;5.50;;
36377;SDS011;22402;42.746;23.606;2022-07-23T04:31:35;14.90;;;6.07;;
36377;SDS011;22402;42.746;23.606;2022-07-23T04:34:01;15.20;;;5.67;;
36377;SDS011;22402;42.746;23.606;2022-07-23T04:36:26;11.60;;;5.90;;
36377;SDS011;22402;42.746;23.606;2022-07-23T04:38:52;7.87;;;5.10;;
36377;SDS011;22402;42.746;23.606;2022-07-23T04:41:18;10.87;;;5.80;;
36377;SDS011;22402;42.746;23.606;2022-07-23T04:43:43;12.43;;;5.50;;
36377;SDS011;22402;42.746;23.606;2022-07-23T04:46:08;10.30;;;6.57;;
36377;SDS011;22402;42.746;23.606;2022-07-23T04:48:34;12.50;;;6.30;;
36377;SDS011;22402;42.746;23.606;2022-07-23T04:50:59;10.30;;;6.10;;
36377;SDS011;22402;42.746;23.606;2022-07-23T04:53:24;10.97;;;6.67;;
36377;SDS011;22402;42.746;23.606;2022-07-23T04:55:50;16.73;;;6.53;;
36377;SDS011;22402;42.746;23.606;2022-07-23T04:58:15;16.40;;;7.27;;
36377;SDS011;22402;42.746;23.606;2022-07-23T05:00:41;14.53;;;7.23;;
36377;SDS011;22402;42.746;23.606;2022-07-23T05:03:06;13.63;;;6.53;;
36377;SDS011;22402;42.746;23.606;2022-07-23T05:05:31;14.20;;;7.13;;
36377;SDS011;22402;42.746;23.606;2022-07-23T05:07:57;12.03;;;7.17;;
36377;SDS011;22402;42.746;23.606;2022-07-23T05:10:22;9.50;;;6.27;;
36377;SDS011;22402;42.746;23.606;2022-07-23T05:12:47;15.30;;;6.30;;
36377;SDS011;22402;42.746;23.606;2022-07-23T05:15:45;20.03;;;6.90;;
36377;SDS011;22402;42.746;23.606;2022-07-23T05:18:10;10.63;;;6.57;;
36377;SDS011;22402;42.746;23.606;2022-07-23T05:20:36;19.60;;;7.37;;
36377;SDS011;22402;42.746;23.606;2022-07-23T05:23:02;11.20;;;6.33;;
36377;SDS011;22402;42.746;23.606;2022-07-23T05:25:27;17.00;;;7.40;;
36377;SDS011;22402;42.746;23.606;2022-07-23T05:27:53;14.33;;;6.40;;
36377;SDS011;22402;42.746;23.606;2022-07-23T05:30:18;10.33;;;6.50;;
36377;SDS011;22402;42.746;23.606;2022-07-23T05:32:44;21.97;;;7.20;;
36377;SDS011;22402;42.746;23.606;2022-07-23T05:35:09;33.33;;;7.63;;
36377;SDS011;22402;42.746;23.606;2022-07-23T05:37:35;15.70;;;7.30;;
36377;SDS011;22402;42.746;23.606;2022-07-23T05:40:04;14.30;;;6.20;;
36377;SDS011;22402;42.746;23.606;2022-07-23T05:42:31;20.40;;;7.50;;
36377;SDS011;22402;42.746;23.606;2022-07-23T05:44:57;9.70;;;6.70;;
36377;SDS011;22402;42.746;23.606;2022-07-23T05:47:22;11.23;;;6.07;;
36377;SDS011;22402;42.746;23.606;2022-07-23T05:49:48;10.77;;;6.40;;
36377;SDS011;22402;42.746;23.606;2022-07-23T05:52:13;12.80;;;7.23;;
36377;SDS011;22402;42.746;23.606;2022-07-23T05:54:38;15.10;;;6.23;;
36377;SDS011;22402;42.746;23.606;2022-07-23T05:57:03;9.10;;;6.33;;
36377;SDS011;22402;42.746;23.606;2022-07-23T05:59:29;12.57;;;7.40;;
36377;SDS011;22402;42.746;23.606;2022-07-23T06:01:55;20.30;;;6.60;;
36377;SDS011;22402;42.746;23.606;2022-07-23T06:04:20;9.17;;;7.00;;
36377;SDS011;22402;42.746;23.606;2022-07-23T06:06:45;11.87;;;6.33;;
36377;SDS011;22402;42.746;23.606;2022-07-23T06:09:11;7.67;;;5.60;;
36377;SDS011;22402;42.746;23.606;2022-07-23T06:11:36;28.47;;;7.33;;
36377;SDS011;22402;42.746;23.606;2022-07-23T06:14:01;12.80;;;6.07;;
36377;SDS011;22402;42.746;23.606;2022-07-23T06:16:27;9.97;;;5.77;;
36377;SDS011;22402;42.746;23.606;2022-07-23T06:18:52;20.83;;;5.70;;
36377;SDS011;22402;42.746;23.606;2022-07-23T06:21:17;9.30;;;5.50;;
36377;SDS011;22402;42.746;23.606;2022-07-23T06:23:43;7.47;;;5.53;;
36377;SDS011;22402;42.746;23.606;2022-07-23T06:26:08;8.47;;;5.77;;
36377;SDS011;22402;42.746;23.606;2022-07-23T06:28:33;12.50;;;6.40;;
36377;SDS011;22402;42.746;23.606;2022-07-23T06:30:59;11.57;;;5.73;;
36377;SDS011;22402;42.746;23.606;2022-07-23T06:33:24;11.00;;;6.53;;
36377;SDS011;22402;42.746;23.606;2022-07-23T06:35:49;8.87;;;5.87;;
36377;SDS011;22402;42.746;23.606;2022-07-23T06:38:15;14.73;;;6.83;;
36377;SDS011;22402;42.746;23.606;2022-07-23T06:40:40;10.40;;;6.17;;
36377;SDS011;22402;42.746;23.606;2022-07-23T06:43:06;15.80;;;6.00;;
36377;SDS011;22402;42.746;23.606;2022-07-23T06:45:31;17.67;;;6.37;;
36377;SDS011;22402;42.746;23.606;2022-07-23T06:47:56;19.10;;;6.43;;
36377;SDS011;22402;42.746;23.606;2022-07-23T06:50:21;22.77;;;6.07;;
36377;SDS011;22402;42.746;23.606;2022-07-23T06:52:47;22.93;;;6.17;;
36377;SDS011;22402;42.746;23.606;2022-07-23T06:55:12;12.27;;;5.80;;
36377;SDS011;22402;42.746;23.606;2022-07-23T06:57:38;20.30;;;6.33;;
36377;SDS011;22402;42.746;23.606;2022-07-23T07:00:03;21.70;;;6.50;;
36377;SDS011;22402;42.746;23.606;2022-07-23T07:02:29;12.10;;;6.60;;
36377;SDS011;22402;42.746;23.606;2022-07-23T07:04:54;9.67;;;5.47;;
36377;SDS011;22402;42.746;23.606;2022-07-23T07:07:19;8.33;;;5.50;;
36377;SDS011;22402;42.746;23.606;2022-07-23T07:09:45;13.10;;;5.70;;
36377;SDS011;22402;42.746;23.606;2022-07-23T07:12:10;16.70;;;4.30;;
36377;SDS011;22402;42.746;23.606;2022-07-23T07:14:35;13.63;;;4.93;;
36377;SDS011;22402;42.746;23.606;2022-07-23T07:17:01;13.30;;;4.63;;
36377;SDS011;22402;42.746;23.606;2022-07-23T07:19:26;12.23;;;5.27;;
36377;SDS011;22402;42.746;23.606;2022-07-23T07:21:51;6.97;;;4.50;;
36377;SDS011;22402;42.746;23.606;2022-07-23T07:24:16;13.83;;;4.73;;
36377;SDS011;22402;42.746;23.606;2022-07-23T07:26:42;6.60;;;4.70;;
36377;SDS011;22402;42.746;23.606;2022-07-23T07:29:07;19.27;;;5.00;;
36377;SDS011;22402;42.746;23.606;2022-07-23T07:31:32;17.60;;;5.77;;
36377;SDS011;22402;42.746;23.606;2022-07-23T07:33:58;32.27;;;5.30;;
36377;SDS011;22402;42.746;23.606;2022-07-23T07:36:23;21.10;;;5.03;;
36377;SDS011;22402;42.746;23.606;2022-07-23T07:38:49;13.60;;;4.87;;
36377;SDS011;22402;42.746;23.606;2022-07-23T07:41:14;18.73;;;4.73;;
36377;SDS011;22402;42.746;23.606;2022-07-23T07:43:40;20.90;;;7.30;;
36377;SDS011;22402;42.746;23.606;2022-07-23T07:46:05;18.27;;;5.47;;
36377;SDS011;22402;42.746;23.606;2022-07-23T07:48:31;25.07;;;6.40;;
36377;SDS011;22402;42.746;23.606;2022-07-23T07:50:56;16.10;;;5.40;;
36377;SDS011;22402;42.746;23.606;2022-07-23T07:53:21;5.60;;;4.10;;
36377;SDS011;22402;42.746;23.606;2022-07-23T07:55:47;7.40;;;5.13;;
36377;SDS011;22402;42.746;23.606;2022-07-23T07:58:12;10.90;;;5.30;;
36377;SDS011;22402;42.746;23.606;2022-07-23T08:00:37;20.80;;;5.63;;
36377;SDS011;22402;42.746;23.606;2022-07-23T08:03:03;15.67;;;6.07;;
36377;SDS011;22402;42.746;23.606;2022-07-23T08:05:29;6.17;;;4.83;;
36377;SDS011;22402;42.746;23.606;2022-07-23T08:07:56;11.23;;;5.43;;
36377;SDS011;22402;42.746;23.606;2022-07-23T08:10:22;16.23;;;5.47;;
36377;SDS011;22402;42.746;23.606;2022-07-23T08:12:49;13.13;;;4.70;;
36377;SDS011;22402;42.746;23.606;2022-07-23T08:15:16;5.40;;;4.00;;
36377;SDS011;22402;42.746;23.606;2022-07-23T08:17:44;12.90;;;5.93;;
36377;SDS011;22402;42.746;23.606;2022-07-23T08:20:10;13.87;;;4.60;;
36377;SDS011;22402;42.746;23.606;2022-07-23T08:22:41;12.50;;;5.07;;
36377;SDS011;22402;42.746;23.606;2022-07-23T08:25:10;10.40;;;5.07;;
36377;SDS011;22402;42.746;23.606;2022-07-23T08:27:35;13.43;;;4.67;;
36377;SDS011;22402;42.746;23.606;2022-07-23T08:30:01;13.00;;;4.93;;
36377;SDS011;22402;42.746;23.606;2022-07-23T08:32:26;11.17;;;5.50;;
36377;SDS011;22402;42.746;23.606;2022-07-23T08:34:52;18.33;;;4.57;;
36377;SDS011;22402;42.746;23.606;2022-07-23T08:37:17;7.70;;;5.07;;
36377;SDS011;22402;42.746;23.606;2022-07-23T08:39:42;25.30;;;4.70;;
36377;SDS011;22402;42.746;23.606;2022-07-23T08:42:08;15.13;;;4.77;;
36377;SDS011;22402;42.746;23.606;2022-07-23T08:44:34;14.43;;;4.80;;
36377;SDS011;22402;42.746;23.606;2022-07-23T08:47:00;17.37;;;4.47;;
36377;SDS011;22402;42.746;23.606;2022-07-23T08:49:26;15.80;;;4.30;;
36377;SDS011;22402;42.746;23.606;2022-07-23T08:51:52;7.40;;;4.20;;
36377;SDS011;22402;42.746;23.606;2022-07-23T08:54:19;17.50;;;3.97;;
36377;SDS011;22402;42.746;23.606;2022-07-23T08:56:46;13.33;;;4.67;;
36377;SDS011;22402;42.746;23.606;2022-07-23T08:59:12;15.63;;;4.20;;
36377;SDS011;22402;42.746;23.606;2022-07-23T09:01:37;7.73;;;4.20;;
36377;SDS011;22402;42.746;23.606;2022-07-23T09:04:02;9.80;;;4.33;;
36377;SDS011;22402;42.746;23.606;2022-07-23T09:06:28;12.50;;;4.20;;
36377;SDS011;22402;42.746;23.606;2022-07-23T09:08:53;10.83;;;4.87;;
36377;SDS011;22402;42.746;23.606;2022-07-23T09:11:18;19.93;;;5.07;;
36377;SDS011;22402;42.746;23.606;2022-07-23T09:18:44;23.60;;;4.77;;
36377;SDS011;22402;42.746;23.606;2022-07-23T09:23:51;17.63;;;4.57;;
36377;SDS011;22402;42.746;23.606;2022-07-23T09:29:00;10.70;;;4.40;;
36377;SDS011;22402;42.746;23.606;2022-07-23T09:31:33;17.23;;;3.90;;
36377;SDS011;22402;42.746;23.606;2022-07-23T09:34:11;15.00;;;4.30;;
36377;SDS011;22402;42.746;23.606;2022-07-23T09:36:37;9.03;;;3.83;;
36377;SDS011;22402;42.746;23.606;2022-07-23T09:39:04;11.47;;;6.00;;
36377;SDS011;22402;42.746;23.606;2022-07-23T09:41:35;10.77;;;4.73;;
36377;SDS011;22402;42.746;23.606;2022-07-23T09:44:09;8.50;;;4.07;;
36377;SDS011;22402;42.746;23.606;2022-07-23T09:46:39;17.40;;;4.43;;
36377;SDS011;22402;42.746;23.606;2022-07-23T09:49:10;14.47;;;4.20;;
36377;SDS011;22402;42.746;23.606;2022-07-23T09:56:49;18.03;;;4.60;;
36377;SDS011;22402;42.746;23.606;2022-07-23T09:59:16;6.50;;;4.17;;
36377;SDS011;22402;42.746;23.606;2022-07-23T10:01:41;9.30;;;4.20;;
36377;SDS011;22402;42.746;23.606;2022-07-23T10:04:08;10.83;;;4.17;;
36377;SDS011;22402;42.746;23.606;2022-07-23T10:06:33;5.70;;;4.03;;
36377;SDS011;22402;42.746;23.606;2022-07-23T10:08:59;3.60;;;3.30;;
36377;SDS011;22402;42.746;23.606;2022-07-23T10:11:25;13.53;;;3.90;;
36377;SDS011;22402;42.746;23.606;2022-07-23T10:13:53;14.03;;;3.87;;
36377;SDS011;22402;42.746;23.606;2022-07-23T10:16:18;7.03;;;3.80;;
36377;SDS011;22402;42.746;23.606;2022-07-23T10:18:44;10.30;;;3.80;;
36377;SDS011;22402;42.746;23.606;2022-07-23T10:21:10;13.30;;;4.13;;
36377;SDS011;22402;42.746;23.606;2022-07-23T10:26:20;5.77;;;3.60;;
36377;SDS011;22402;42.746;23.606;2022-07-23T10:31:47;6.73;;;3.87;;
36377;SDS011;22402;42.746;23.606;2022-07-23T10:34:25;13.70;;;4.00;;
36377;SDS011;22402;42.746;23.606;2022-07-23T10:36:52;8.37;;;4.33;;
36377;SDS011;22402;42.746;23.606;2022-07-23T10:39:24;7.87;;;3.60;;
36377;SDS011;22402;42.746;23.606;2022-07-23T10:41:53;10.27;;;3.90;;
36377;SDS011;22402;42.746;23.606;2022-07-23T10:44:38;9.53;;;3.90;;
36377;SDS011;22402;42.746;23.606;2022-07-23T10:47:04;11.00;;;4.03;;
36377;SDS011;22402;42.746;23.606;2022-07-23T10:49:30;11.03;;;3.70;;
36377;SDS011;22402;42.746;23.606;2022-07-23T10:52:16;7.37;;;4.23;;
36377;SDS011;22402;42.746;23.606;2022-07-23T10:54:56;11.23;;;3.30;;
36377;SDS011;22402;42.746;23.606;2022-07-23T10:57:48;21.70;;;4.50;;
36377;SDS011;22402;42.746;23.606;2022-07-23T11:00:16;6.37;;;3.07;;
36377;SDS011;22402;42.746;23.606;2022-07-23T11:02:45;5.83;;;3.87;;
36377;SDS011;22402;42.746;23.606;2022-07-23T11:05:13;11.07;;;4.40;;
36377;SDS011;22402;42.746;23.606;2022-07-23T11:10:34;6.17;;;3.33;;
36377;SDS011;22402;42.746;23.606;2022-07-23T11:31:52;12.73;;;4.00;;
36377;SDS011;22402;42.746;23.606;2022-07-23T11:34:34;10.87;;;3.80;;
36377;SDS011;22402;42.746;23.606;2022-07-23T11:37:03;12.00;;;4.70;;
36377;SDS011;22402;42.746;23.606;2022-07-23T11:39:31;17.20;;;4.70;;
36377;SDS011;22402;42.746;23.606;2022-07-23T11:41:58;8.13;;;3.70;;
36377;SDS011;22402;42.746;23.606;2022-07-23T11:44:31;7.23;;;4.27;;
36377;SDS011;22402;42.746;23.606;2022-07-23T11:47:02;8.27;;;4.30;;
36377;SDS011;22402;42.746;23.606;2022-07-23T11:49:30;8.70;;;4.80;;
36377;SDS011;22402;42.746;23.606;2022-07-23T11:54:35;7.13;;;4.60;;
36377;SDS011;22402;42.746;23.606;2022-07-23T11:57:11;8.50;;;3.47;;
36377;SDS011;22402;42.746;23.606;2022-07-23T11:59:36;9.17;;;3.47;;
36377;SDS011;22402;42.746;23.606;2022-07-23T12:02:03;9.00;;;4.23;;
36377;SDS011;22402;42.746;23.606;2022-07-23T12:04:47;8.33;;;3.63;;
36377;SDS011;22402;42.746;23.606;2022-07-23T12:10:04;22.57;;;4.43;;
36377;SDS011;22402;42.746;23.606;2022-07-23T12:12:36;11.73;;;4.27;;
36377;SDS011;22402;42.746;23.606;2022-07-23T12:15:02;25.63;;;4.30;;
36377;SDS011;22402;42.746;23.606;2022-07-23T12:17:30;10.73;;;4.13;;
36377;SDS011;22402;42.746;23.606;2022-07-23T12:19:58;16.33;;;4.57;;
36377;SDS011;22402;42.746;23.606;2022-07-23T12:22:24;19.70;;;4.10;;
36377;SDS011;22402;42.746;23.606;2022-07-23T12:27:22;15.33;;;4.63;;
36377;SDS011;22402;42.746;23.606;2022-07-23T12:29:49;21.30;;;3.37;;
36377;SDS011;22402;42.746;23.606;2022-07-23T12:32:22;12.20;;;3.80;;
36377;SDS011;22402;42.746;23.606;2022-07-23T12:35:05;10.50;;;3.90;;
36377;SDS011;22402;42.746;23.606;2022-07-23T12:37:33;10.33;;;4.17;;
36377;SDS011;22402;42.746;23.606;2022-07-23T12:42:45;9.90;;;4.20;;
36377;SDS011;22402;42.746;23.606;2022-07-23T12:45:12;11.47;;;3.80;;
36377;SDS011;22402;42.746;23.606;2022-07-23T12:47:50;16.63;;;4.40;;
36377;SDS011;22402;42.746;23.606;2022-07-23T12:50:37;12.87;;;4.60;;
36377;SDS011;22402;42.746;23.606;2022-07-23T12:53:07;9.47;;;4.50;;
36377;SDS011;22402;42.746;23.606;2022-07-23T12:55:44;12.90;;;3.80;;
36377;SDS011;22402;42.746;23.606;2022-07-23T12:58:15;14.20;;;4.80;;
36377;SDS011;22402;42.746;23.606;2022-07-23T13:01:15;27.80;;;4.63;;
36377;SDS011;22402;42.746;23.606;2022-07-23T13:03:38;15.87;;;4.83;;
36377;SDS011;22402;42.746;23.606;2022-07-23T13:06:06;11.17;;;4.50;;
36377;SDS011;22402;42.746;23.606;2022-07-23T13:08:35;8.57;;;4.33;;
36377;SDS011;22402;42.746;23.606;2022-07-23T13:11:04;6.70;;;3.87;;
36377;SDS011;22402;42.746;23.606;2022-07-23T13:13:31;7.67;;;4.27;;
36377;SDS011;22402;42.746;23.606;2022-07-23T13:15:58;11.17;;;4.47;;
36377;SDS011;22402;42.746;23.606;2022-07-23T13:18:25;14.47;;;4.43;;
36377;SDS011;22402;42.746;23.606;2022-07-23T13:20:51;13.03;;;4.90;;
36377;SDS011;22402;42.746;23.606;2022-07-23T13:23:17;10.67;;;3.90;;
36377;SDS011;22402;42.746;23.606;2022-07-23T13:25:43;6.20;;;3.70;;
36377;SDS011;22402;42.746;23.606;2022-07-23T13:28:09;10.93;;;4.13;;
36377;SDS011;22402;42.746;23.606;2022-07-23T13:30:35;12.80;;;4.60;;
36377;SDS011;22402;42.746;23.606;2022-07-23T13:33:01;23.00;;;4.57;;
36377;SDS011;22402;42.746;23.606;2022-07-23T13:35:28;13.57;;;4.07;;
36377;SDS011;22402;42.746;23.606;2022-07-23T13:37:53;12.33;;;3.87;;
36377;SDS011;22402;42.746;23.606;2022-07-23T13:40:19;10.90;;;5.07;;
36377;SDS011;22402;42.746;23.606;2022-07-23T13:42:44;9.30;;;3.90;;
36377;SDS011;22402;42.746;23.606;2022-07-23T13:45:10;18.83;;;4.20;;
36377;SDS011;22402;42.746;23.606;2022-07-23T13:47:35;13.30;;;4.53;;
36377;SDS011;22402;42.746;23.606;2022-07-23T13:50:00;15.97;;;5.03;;
36377;SDS011;22402;42.746;23.606;2022-07-23T13:52:26;22.47;;;5.90;;
36377;SDS011;22402;42.746;23.606;2022-07-23T13:54:51;12.77;;;5.10;;
36377;SDS011;22402;42.746;23.606;2022-07-23T13:57:17;17.80;;;6.83;;
36377;SDS011;22402;42.746;23.606;2022-07-23T13:59:42;14.30;;;4.80;;
36377;SDS011;22402;42.746;23.606;2022-07-23T14:02:08;8.60;;;4.53;;
36377;SDS011;22402;42.746;23.606;2022-07-23T14:04:34;7.33;;;4.97;;
36377;SDS011;22402;42.746;23.606;2022-07-23T14:06:59;13.47;;;5.30;;
36377;SDS011;22402;42.746;23.606;2022-07-23T14:09:25;10.83;;;4.97;;
36377;SDS011;22402;42.746;23.606;2022-07-23T14:11:51;16.83;;;4.53;;
36377;SDS011;22402;42.746;23.606;2022-07-23T14:14:17;8.53;;;3.73;;
36377;SDS011;22402;42.746;23.606;2022-07-23T14:16:42;13.07;;;3.90;;
36377;SDS011;22402;42.746;23.606;2022-07-23T14:19:08;11.07;;;4.60;;
36377;SDS011;22402;42.746;23.606;2022-07-23T14:21:34;13.30;;;4.97;;
36377;SDS011;22402;42.746;23.606;2022-07-23T14:23:59;19.60;;;4.00;;
36377;SDS011;22402;42.746;23.606;2022-07-23T14:26:24;9.10;;;4.20;;
36377;SDS011;22402;42.746;23.606;2022-07-23T14:28:50;10.60;;;3.80;;
36377;SDS011;22402;42.746;23.606;2022-07-23T14:31:15;13.60;;;3.80;;
36377;SDS011;22402;42.746;23.606;2022-07-23T14:33:40;6.10;;;3.23;;
36377;SDS011;22402;42.746;23.606;2022-07-23T14:36:06;9.80;;;4.40;;
36377;SDS011;22402;42.746;23.606;2022-07-23T14:38:31;7.30;;;3.43;;
36377;SDS011;22402;42.746;23.606;2022-07-23T14:40:57;19.60;;;4.30;;
36377;SDS011;22402;42.746;23.606;2022-07-23T14:43:22;11.17;;;4.07;;
36377;SDS011;22402;42.746;23.606;2022-07-23T14:45:48;9.70;;;3.57;;
36377;SDS011;22402;42.746;23.606;2022-07-23T14:48:13;11.30;;;4.73;;
36377;SDS011;22402;42.746;23.606;2022-07-23T14:50:38;7.27;;;4.23;;
36377;SDS011;22402;42.746;23.606;2022-07-23T14:53:05;7.80;;;3.70;;
36377;SDS011;22402;42.746;23.606;2022-07-23T14:55:33;9.90;;;4.00;;
36377;SDS011;22402;42.746;23.606;2022-07-23T14:57:59;10.23;;;5.00;;
36377;SDS011;22402;42.746;23.606;2022-07-23T15:00:25;12.50;;;4.37;;
36377;SDS011;22402;42.746;23.606;2022-07-23T15:02:51;12.60;;;4.10;;
36377;SDS011;22402;42.746;23.606;2022-07-23T15:05:17;9.10;;;3.00;;
36377;SDS011;22402;42.746;23.606;2022-07-23T15:07:42;11.63;;;4.30;;
36377;SDS011;22402;42.746;23.606;2022-07-23T15:10:08;13.90;;;4.10;;
36377;SDS011;22402;42.746;23.606;2022-07-23T15:12:33;14.57;;;4.07;;
36377;SDS011;22402;42.746;23.606;2022-07-23T15:14:58;10.60;;;4.40;;
36377;SDS011;22402;42.746;23.606;2022-07-23T15:17:24;14.87;;;3.77;;